Time;durP1;ratioP1;P1;durP2;ratioP2;P2;SDS_P1;SDS_P2;PMS_P1;PMS_P2;Temp;Humidity;BMP_temperature;BMP_pressure;BME280_temperature;BME280_humidity;BME280_pressure;Samples;Min_cycle;Max_cycle;Signal;HPM_P1;HPM_P2
2023/01/12 00:01:14;;;;;;;16.13;10.10;;;7.10;99.90;;;;;;2603308;54;20092;31
2023/01/12 00:03:55;;;;;;;11.90;8.95;;;7.10;99.90;;;;;;2621604;46;20133;31
2023/01/12 00:06:30;;;;;;;16.80;9.50;;;7.10;99.90;;;;;;2603485;54;20707;31
2023/01/12 00:09:06;;;;;;;16.83;11.33;;;7.10;99.90;;;;;;2720043;39;20581;31
2023/01/12 00:11:41;;;;;;;14.80;10.60;;;7.10;99.90;;;;;;2621665;46;20038;31
2023/01/12 00:14:16;;;;;;;12.68;9.55;;;7.10;99.90;;;;;;2603145;54;20920;31
2023/01/12 00:16:51;;;;;;;13.25;9.55;;;7.20;99.90;;;;;;2603370;54;21681;31
2023/01/12 00:19:30;;;;;;;13.45;9.70;;;7.20;99.90;;;;;;2603117;54;20870;31
2023/01/12 00:22:10;;;;;;;12.95;7.70;;;7.20;99.90;;;;;;2621604;46;20101;31
2023/01/12 00:24:48;;;;;;;13.90;8.85;;;7.10;99.90;;;;;;2603268;54;20827;31
2023/01/12 00:27:21;;;;;;;13.07;7.80;;;7.10;99.90;;;;;;2603323;54;22452;31
2023/01/12 00:29:57;;;;;;;9.85;7.75;;;7.10;99.90;;;;;;2720063;39;20504;31
2023/01/12 00:32:32;;;;;;;12.10;8.23;;;7.20;99.90;;;;;;2603054;54;20157;31
2023/01/12 00:35:11;;;;;;;12.88;9.00;;;7.10;99.90;;;;;;2603100;54;20877;31
2023/01/12 00:37:47;;;;;;;12.75;7.90;;;7.10;99.90;;;;;;2603115;54;20031;31
2023/01/12 00:40:22;;;;;;;14.05;8.75;;;7.10;99.90;;;;;;2603219;54;20943;31
2023/01/12 00:45:45;;;;;;;12.90;8.20;;;7.10;99.90;;;;;;2603068;54;20023;31
2023/01/12 00:48:21;;;;;;;11.90;8.70;;;7.10;99.90;;;;;;2603196;54;20034;31
2023/01/12 00:50:59;;;;;;;10.80;8.10;;;7.10;99.90;;;;;;2603264;54;20803;31
2023/01/12 00:53:34;;;;;;;11.43;7.88;;;7.20;99.90;;;;;;2603211;54;20879;31
2023/01/12 00:56:10;;;;;;;10.18;7.53;;;7.10;99.90;;;;;;2603223;54;20042;31
2023/01/12 00:58:44;;;;;;;11.13;6.88;;;7.00;99.90;;;;;;2602298;54;20850;31
2023/01/12 01:01:19;;;;;;;11.85;7.30;;;7.10;99.90;;;;;;2603061;54;20050;31
2023/01/12 01:03:54;;;;;;;18.00;9.85;;;7.00;99.90;;;;;;2603530;46;20093;31
2023/01/12 01:06:32;;;;;;;16.15;9.00;;;7.00;99.90;;;;;;2603064;54;20892;31
2023/01/12 01:09:07;;;;;;;14.90;8.70;;;7.00;99.90;;;;;;2603261;54;20026;31
2023/01/12 01:11:42;;;;;;;12.55;9.48;;;7.00;99.90;;;;;;2602948;54;20965;31
2023/01/12 01:14:18;;;;;;;13.13;8.98;;;7.00;99.90;;;;;;2621657;46;20026;31
2023/01/12 01:16:53;;;;;;;;;;;7.00;99.90;;;;;;2603029;54;20073;31
2023/01/12 01:19:27;;;;;;;10.18;7.28;;;7.00;99.90;;;;;;2603089;54;20027;31
2023/01/12 01:22:04;;;;;;;10.98;7.20;;;7.00;99.90;;;;;;2602999;54;20031;31
2023/01/12 01:24:43;;;;;;;13.20;8.68;;;6.90;99.90;;;;;;2603062;54;20800;31
2023/01/12 01:27:18;;;;;;;11.40;7.47;;;6.90;99.90;;;;;;2603069;54;20026;31
2023/01/12 01:29:56;;;;;;;11.68;6.93;;;6.90;99.90;;;;;;2603169;54;20246;31
2023/01/12 01:32:32;;;;;;;16.10;9.48;;;6.90;99.90;;;;;;2621296;47;20081;31
2023/01/12 01:35:04;;;;;;;11.95;7.60;;;6.90;99.90;;;;;;2602753;54;20793;31
2023/01/12 01:37:42;;;;;;;13.73;8.57;;;6.90;99.90;;;;;;2603014;54;20901;31
2023/01/12 01:40:18;;;;;;;16.25;9.05;;;6.80;99.90;;;;;;2603052;54;20026;31
2023/01/12 01:42:52;;;;;;;13.55;9.65;;;6.90;99.90;;;;;;2603112;54;20862;31
2023/01/12 01:45:28;;;;;;;10.68;8.40;;;6.90;99.90;;;;;;2602977;54;20081;31
2023/01/12 01:48:03;;;;;;;15.70;9.90;;;6.80;99.90;;;;;;2603117;54;20846;31
2023/01/12 01:50:39;;;;;;;21.70;12.20;;;6.80;99.90;;;;;;2602935;54;20153;31
2023/01/12 01:53:19;;;;;;;16.80;11.13;;;6.80;99.90;;;;;;2602917;54;21020;31
2023/01/12 01:55:59;;;;;;;15.75;9.73;;;6.80;99.90;;;;;;2701227;39;20455;31
2023/01/12 01:58:35;;;;;;;13.38;8.82;;;6.70;99.90;;;;;;2621150;47;20037;31
2023/01/12 02:01:11;;;;;;;16.25;9.93;;;6.70;99.90;;;;;;2603016;54;20034;31
2023/01/12 02:03:51;;;;;;;14.10;10.55;;;6.70;99.90;;;;;;2602932;54;20921;31
2023/01/12 02:06:25;;;;;;;14.80;9.15;;;6.70;99.90;;;;;;2621210;47;20568;31
2023/01/12 02:09:04;;;;;;;13.60;7.50;;;6.70;99.90;;;;;;2602839;54;20589;31
2023/01/12 02:17:12;;;;;;;;;;;6.70;99.90;;;;;;2603900;54;20903;31
2023/01/12 02:20:04;;;;;;;11.90;6.32;;;6.60;99.90;;;;;;2603701;54;19946;31
2023/01/12 02:22:38;;;;;;;12.60;6.93;;;6.60;99.90;;;;;;2603281;54;20561;31
2023/01/12 02:25:37;;;;;;;14.57;8.35;;;6.60;99.90;;;;;;2603482;54;20022;31
2023/01/12 02:28:34;;;;;;;11.38;7.10;;;6.60;99.90;;;;;;2603401;54;20038;31
2023/01/12 02:31:24;;;;;;;12.43;7.57;;;6.50;99.90;;;;;;2603696;54;20026;31
2023/01/12 02:34:03;;;;;;;12.40;7.45;;;6.60;99.90;;;;;;2603708;54;20777;31
2023/01/12 02:36:39;;;;;;;13.55;7.53;;;6.50;99.90;;;;;;2603597;54;20917;31
2023/01/12 02:39:17;;;;;;;13.95;8.05;;;6.50;99.90;;;;;;2603638;54;20029;31
2023/01/12 02:44:43;;;;;;;14.65;6.97;;;6.50;99.90;;;;;;2603752;54;20077;31
2023/01/12 02:47:20;;;;;;;;;;;6.50;99.90;;;;;;2603895;54;20851;31
2023/01/12 02:49:55;;;;;;;15.02;8.02;;;6.50;99.90;;;;;;2603649;54;19941;31
2023/01/12 02:52:30;;;;;;;13.55;6.30;;;6.40;99.90;;;;;;2603685;54;20077;31
2023/01/12 02:55:05;;;;;;;12.73;7.90;;;6.40;99.90;;;;;;2603357;54;21198;31
2023/01/12 02:57:40;;;;;;;12.33;7.50;;;6.40;99.90;;;;;;2603573;54;20564;31
2023/01/12 03:00:19;;;;;;;15.43;8.32;;;6.40;99.90;;;;;;2603605;54;20030;31
2023/01/12 03:02:56;;;;;;;16.65;8.52;;;6.40;99.90;;;;;;2603538;54;20023;31
2023/01/12 03:05:33;;;;;;;16.33;7.68;;;6.40;99.90;;;;;;2603491;54;20924;31
2023/01/12 03:08:08;;;;;;;12.68;8.93;;;6.30;99.90;;;;;;2603322;54;20970;31
2023/01/12 03:11:10;;;;;;;15.40;8.63;;;6.30;99.90;;;;;;2603646;54;20554;31
2023/01/12 03:13:47;;;;;;;10.00;5.60;;;6.30;99.90;;;;;;2603315;54;20042;31
2023/01/12 03:16:23;;;;;;;12.15;6.82;;;6.40;99.90;;;;;;2603359;54;20830;31
2023/01/12 03:19:03;;;;;;;14.32;7.00;;;6.30;99.90;;;;;;2603572;54;20033;31
2023/01/12 03:21:38;;;;;;;11.95;8.25;;;6.30;99.90;;;;;;2603358;54;22336;31
2023/01/12 03:24:14;;;;;;;15.27;7.35;;;6.30;99.90;;;;;;2603369;54;20026;31
2023/01/12 03:26:49;;;;;;;14.55;7.95;;;6.20;99.90;;;;;;2602981;54;20023;31
2023/01/12 03:29:27;;;;;;;13.50;7.95;;;6.20;99.90;;;;;;2603448;54;20885;31
2023/01/12 03:32:02;;;;;;;12.70;7.82;;;6.10;99.90;;;;;;2701811;39;20632;31
2023/01/12 03:34:40;;;;;;;15.98;8.10;;;6.20;99.90;;;;;;2603425;54;20026;31
2023/01/12 03:37:18;;;;;;;15.85;8.40;;;6.20;99.90;;;;;;2603307;54;20803;31
2023/01/12 03:39:54;;;;;;;12.35;7.80;;;6.10;99.90;;;;;;2603394;54;20038;31
2023/01/12 03:42:31;;;;;;;15.30;8.05;;;6.10;99.90;;;;;;2603319;54;20853;31
2023/01/12 03:45:10;;;;;;;13.15;7.45;;;6.00;99.90;;;;;;2621599;46;22374;31
2023/01/12 03:47:45;;;;;;;16.77;7.20;;;6.10;99.90;;;;;;2603360;54;20088;31
2023/01/12 03:50:23;;;;;;;16.15;7.88;;;6.00;99.90;;;;;;2701942;39;20581;31
2023/01/12 03:52:59;;;;;;;13.27;7.10;;;6.00;99.90;;;;;;2603329;54;20893;31
2023/01/12 03:55:35;;;;;;;19.67;9.00;;;6.00;99.90;;;;;;2603368;54;21458;31
2023/01/12 03:58:10;;;;;;;14.63;7.50;;;6.00;99.90;;;;;;2603408;54;20089;31
2023/01/12 04:00:45;;;;;;;14.55;7.63;;;5.90;99.90;;;;;;2603285;54;20081;31
2023/01/12 04:03:24;;;;;;;12.70;7.70;;;5.90;99.90;;;;;;2701953;39;20509;31
2023/01/12 04:06:02;;;;;;;13.77;8.05;;;5.90;99.90;;;;;;2603177;54;20353;31
2023/01/12 04:08:34;;;;;;;14.25;7.22;;;5.80;99.90;;;;;;2603651;31;20018;31
2023/01/12 04:13:59;;;;;;;16.67;7.87;;;5.80;99.90;;;;;;2621663;46;20056;31
2023/01/12 04:16:35;;;;;;;11.60;7.13;;;5.80;99.90;;;;;;2701716;39;21530;31
2023/01/12 04:19:10;;;;;;;11.10;6.68;;;5.70;99.90;;;;;;2603236;54;20053;31
2023/01/12 04:24:39;;;;;;;12.63;7.53;;;5.60;99.90;;;;;;2603308;54;20044;31
2023/01/12 04:27:11;;;;;;;10.05;6.10;;;5.60;99.90;;;;;;2603388;54;21628;31
2023/01/12 04:29:46;;;;;;;14.60;7.68;;;5.60;99.90;;;;;;2621700;46;20022;31
2023/01/12 04:32:21;;;;;;;12.82;7.07;;;5.60;99.90;;;;;;2603336;54;20101;31
2023/01/12 04:34:56;;;;;;;15.10;6.93;;;5.50;99.90;;;;;;2621600;46;20036;31
2023/01/12 04:37:34;;;;;;;10.38;6.10;;;5.50;99.90;;;;;;2603347;54;20775;31
2023/01/12 04:40:12;;;;;;;11.57;5.80;;;5.50;99.90;;;;;;2602980;54;20044;31
2023/01/12 04:45:42;;;;;;;11.50;5.70;;;5.40;99.90;;;;;;2603065;54;20819;31
2023/01/12 04:48:18;;;;;;;9.50;5.60;;;5.40;99.90;;;;;;2603253;54;20023;31
2023/01/12 04:50:55;;;;;;;10.60;5.57;;;5.40;99.90;;;;;;2603285;54;20916;31
2023/01/12 04:53:32;;;;;;;10.63;6.13;;;5.40;99.90;;;;;;2603025;54;20089;31
2023/01/12 04:56:08;;;;;;;12.70;6.50;;;5.40;99.90;;;;;;2603142;54;20026;31
2023/01/12 04:58:44;;;;;;;11.68;7.07;;;5.40;99.90;;;;;;2602907;54;20033;31
2023/01/12 05:01:21;;;;;;;9.97;6.27;;;5.40;99.90;;;;;;2603060;54;20089;31
2023/01/12 05:03:56;;;;;;;8.45;5.68;;;5.30;99.90;;;;;;2603002;54;20092;31
2023/01/12 05:06:31;;;;;;;9.80;6.80;;;5.30;99.90;;;;;;2618043;46;20038;31
2023/01/12 05:12:03;;;;;;;10.45;6.00;;;5.20;99.90;;;;;;2603295;54;20872;31
2023/01/12 05:14:39;;;;;;;11.50;6.47;;;5.20;99.90;;;;;;2602621;54;20954;31
2023/01/12 05:17:15;;;;;;;8.73;6.35;;;5.20;99.90;;;;;;2603110;54;20117;31
2023/01/12 05:19:50;;;;;;;13.00;6.20;;;5.20;99.90;;;;;;2603170;54;20052;31
2023/01/12 05:22:26;;;;;;;11.10;6.65;;;5.10;99.90;;;;;;2621206;47;20838;31
2023/01/12 05:25:05;;;;;;;11.68;6.97;;;5.10;99.90;;;;;;2602726;54;20027;31
2023/01/12 05:27:41;;;;;;;9.90;6.85;;;5.10;99.90;;;;;;2602988;54;20022;31
2023/01/12 05:30:15;;;;;;;10.25;6.70;;;5.00;99.90;;;;;;2603059;54;20053;31
2023/01/12 05:32:50;;;;;;;11.18;6.95;;;5.00;99.90;;;;;;2602820;54;20950;31
2023/01/12 05:35:25;;;;;;;12.38;6.60;;;5.00;99.90;;;;;;2602873;54;20081;31
2023/01/12 05:38:01;;;;;;;11.13;6.03;;;5.00;99.90;;;;;;2621251;47;20030;31
2023/01/12 05:40:41;;;;;;;;;;;5.00;99.90;;;;;;2603258;54;20960;31
2023/01/12 05:46:07;;;;;;;9.75;4.90;;;5.00;99.90;;;;;;2603065;54;20808;31
2023/01/12 05:49:00;;;;;;;10.45;5.10;;;5.00;99.90;;;;;;2602973;54;20098;31
2023/01/12 05:51:36;;;;;;;11.87;4.87;;;5.00;99.90;;;;;;2603590;54;20034;31
2023/01/12 05:54:14;;;;;;;11.35;4.15;;;5.00;99.90;;;;;;2621176;46;20029;31
2023/01/12 05:56:54;;;;;;;10.32;5.50;;;5.00;99.90;;;;;;2603599;54;20030;31
2023/01/12 05:59:30;;;;;;;7.85;5.15;;;5.00;99.90;;;;;;2603761;54;20925;31
2023/01/12 06:02:05;;;;;;;8.57;4.80;;;5.00;99.90;;;;;;2603785;54;20079;31
2023/01/12 06:04:42;;;;;;;10.48;4.45;;;5.00;99.90;;;;;;2603829;54;20030;31
2023/01/12 06:07:17;;;;;;;12.43;4.83;;;5.00;99.90;;;;;;2603622;54;20026;31
2023/01/12 06:09:51;;;;;;;8.40;4.30;;;5.00;99.90;;;;;;2603834;54;20884;31
2023/01/12 06:15:16;;;;;;;10.55;5.45;;;4.90;99.90;;;;;;2603501;54;20679;31
2023/01/12 06:17:54;;;;;;;12.37;5.70;;;4.90;99.90;;;;;;2603727;54;20874;31
2023/01/12 06:20:30;;;;;;;7.63;5.05;;;4.90;99.90;;;;;;2603319;54;20054;31
2023/01/12 06:23:06;;;;;;;11.25;5.60;;;5.00;99.90;;;;;;2603529;54;20026;31
2023/01/12 06:25:40;;;;;;;12.25;5.75;;;5.00;99.90;;;;;;2603490;54;20607;31
2023/01/12 06:28:15;;;;;;;11.60;4.75;;;4.90;99.90;;;;;;2603593;54;20026;31
2023/01/12 06:31:00;;;;;;;9.70;5.23;;;4.90;99.90;;;;;;2603673;54;20026;31
2023/01/12 06:33:36;;;;;;;8.30;5.10;;;5.00;99.90;;;;;;2622035;46;20029;31
2023/01/12 06:36:12;;;;;;;11.25;5.65;;;4.90;99.90;;;;;;2603459;54;20113;31
2023/01/12 06:38:48;;;;;;;10.27;5.15;;;5.00;99.90;;;;;;2603384;54;20033;31
2023/01/12 06:44:12;;;;;;;12.32;5.10;;;4.90;99.90;;;;;;2603623;54;20050;31
2023/01/12 06:46:51;;;;;;;8.77;5.13;;;4.90;99.90;;;;;;2602786;54;20073;31
2023/01/12 06:49:27;;;;;;;12.60;5.15;;;4.90;99.90;;;;;;2603575;54;20570;31
2023/01/12 06:52:05;;;;;;;11.48;6.70;;;4.90;99.90;;;;;;2603512;54;20912;31
2023/01/12 06:54:40;;;;;;;11.35;5.80;;;4.90;99.90;;;;;;2603464;54;20910;31
2023/01/12 06:57:16;;;;;;;10.52;6.30;;;4.80;99.90;;;;;;2603637;54;20023;31
2023/01/12 06:59:51;;;;;;;;;;;4.80;99.90;;;;;;2603794;54;20029;31
2023/01/12 07:02:30;;;;;;;9.80;5.25;;;4.80;99.90;;;;;;2603584;54;20694;31
2023/01/12 07:05:07;;;;;;;12.10;5.40;;;4.80;99.90;;;;;;2603592;54;20578;31
2023/01/12 07:07:43;;;;;;;10.15;5.72;;;4.80;99.90;;;;;;2603759;54;20072;31
2023/01/12 07:10:19;;;;;;;14.40;6.75;;;4.80;99.90;;;;;;2603647;54;20026;31
2023/01/12 07:12:54;;;;;;;13.90;6.38;;;4.80;99.90;;;;;;2603287;54;21024;31
2023/01/12 07:15:30;;;;;;;12.70;6.63;;;4.90;99.90;;;;;;2603460;54;20649;31
2023/01/12 07:18:08;;;;;;;;;;;4.90;99.90;;;;;;2603832;54;20030;31
2023/01/12 07:20:40;;;;;;;;;;;5.00;99.90;;;;;;2603876;54;20441;31
2023/01/12 07:23:15;;;;;;;11.95;5.97;;;5.00;99.90;;;;;;2621856;46;19942;31
2023/01/12 07:25:51;;;;;;;11.73;5.70;;;5.10;99.90;;;;;;2603609;54;20027;31
2023/01/12 07:28:25;;;;;;;9.00;5.07;;;5.10;99.90;;;;;;2603361;54;20533;31
2023/01/12 07:31:05;;;;;;;8.80;5.78;;;5.20;99.90;;;;;;2603598;54;20093;31
2023/01/12 07:33:43;;;;;;;9.77;3.90;;;5.30;99.90;;;;;;2603691;54;20026;31
2023/01/12 07:36:18;;;;;;;9.65;3.97;;;5.70;99.90;;;;;;2603277;54;20959;31
2023/01/12 07:38:53;;;;;;;10.25;4.25;;;6.20;99.90;;;;;;2603549;54;20026;31
2023/01/12 07:44:17;;;;;;;9.55;3.25;;;7.30;99.90;;;;;;2603418;54;20877;31
2023/01/12 07:46:53;;;;;;;9.73;4.00;;;7.90;99.90;;;;;;2603479;54;20845;31
2023/01/12 07:49:31;;;;;;;6.30;2.92;;;8.50;99.90;;;;;;2603299;54;20026;31
2023/01/12 07:52:08;;;;;;;8.65;2.75;;;9.00;99.90;;;;;;2603368;54;20027;31
2023/01/12 07:54:43;;;;;;;10.13;4.07;;;9.40;99.90;;;;;;2603625;54;20027;31
2023/01/12 07:57:20;;;;;;;7.17;3.00;;;9.90;99.90;;;;;;2603251;54;20129;31
2023/01/12 07:59:56;;;;;;;8.05;3.03;;;10.40;99.90;;;;;;2603190;54;20937;31
2023/01/12 08:02:31;;;;;;;7.20;2.70;;;10.80;99.90;;;;;;2603216;54;20026;31
2023/01/12 08:05:10;;;;;;;6.70;2.20;;;11.10;99.90;;;;;;2603327;54;20904;31
2023/01/12 08:07:47;;;;;;;6.38;2.50;;;11.40;99.90;;;;;;2603412;54;20837;31
2023/01/12 08:10:24;;;;;;;3.53;1.85;;;11.60;99.90;;;;;;2603122;54;20026;31
2023/01/12 08:12:58;;;;;;;9.02;2.67;;;11.90;99.90;;;;;;2603085;54;20113;31
2023/01/12 08:15:35;;;;;;;5.85;2.10;;;12.10;99.90;;;;;;2603195;54;20812;31
2023/01/12 08:18:11;;;;;;;6.47;2.47;;;12.40;99.90;;;;;;2602969;54;20053;31
2023/01/12 08:20:48;;;;;;;;;;;12.70;99.90;;;;;;2603286;54;19942;31
2023/01/12 08:23:25;;;;;;;8.00;2.35;;;12.80;99.90;;;;;;2603113;54;20761;31
2023/01/12 08:26:01;;;;;;;7.68;2.65;;;12.90;99.90;;;;;;2603278;54;20831;31
2023/01/12 08:28:36;;;;;;;;;;;13.00;99.90;;;;;;2603652;54;20864;31
2023/01/12 08:31:12;;;;;;;4.90;2.10;;;13.10;99.90;;;;;;2603441;54;20031;31
2023/01/12 08:33:47;;;;;;;8.90;2.60;;;13.30;99.90;;;;;;2603421;54;20957;31
2023/01/12 08:36:26;;;;;;;7.85;2.95;;;13.30;99.90;;;;;;2603126;54;20814;31
2023/01/12 08:39:02;;;;;;;6.60;2.63;;;13.10;99.90;;;;;;2603161;54;20107;31
2023/01/12 08:41:41;;;;;;;6.75;2.45;;;13.30;99.90;;;;;;2603403;54;21102;31
2023/01/12 08:44:16;;;;;;;5.05;1.80;;;13.20;99.90;;;;;;2603183;54;20046;31
2023/01/12 08:46:52;;;;;;;6.03;2.42;;;13.30;99.90;;;;;;2603456;54;20916;31
2023/01/12 08:49:30;;;;;;;6.00;2.23;;;13.30;99.90;;;;;;2603210;54;20541;31
2023/01/12 08:52:07;;;;;;;7.53;2.28;;;13.30;99.90;;;;;;2621434;46;21635;31
2023/01/12 08:54:42;;;;;;;7.32;2.45;;;13.40;99.90;;;;;;2621661;46;20878;31
2023/01/12 08:57:18;;;;;;;10.15;2.90;;;13.20;99.90;;;;;;2603208;54;20026;31
2023/01/12 08:59:55;;;;;;;6.85;2.50;;;13.00;99.90;;;;;;2603258;54;20859;31
2023/01/12 09:02:30;;;;;;;8.37;2.10;;;12.80;99.90;;;;;;2602981;54;20030;31
2023/01/12 09:05:04;;;;;;;6.40;2.20;;;12.70;99.90;;;;;;2621468;46;19993;31
2023/01/12 09:07:43;;;;;;;6.95;2.30;;;12.60;99.90;;;;;;2603042;54;20053;31
2023/01/12 09:10:18;;;;;;;6.82;2.20;;;12.70;99.90;;;;;;2603054;54;20046;31
2023/01/12 09:12:53;;;;;;;5.38;2.53;;;12.80;99.90;;;;;;2701685;39;20560;31
2023/01/12 09:15:29;;;;;;;6.18;1.80;;;13.00;99.90;;;;;;2602715;54;20062;31
2023/01/12 09:18:04;;;;;;;8.32;2.45;;;13.10;99.90;;;;;;2603168;54;20077;31
2023/01/12 09:20:42;;;;;;;7.00;1.97;;;13.00;99.90;;;;;;2621738;46;20716;31
2023/01/12 09:23:17;;;;;;;9.07;2.00;;;13.00;99.90;;;;;;2602962;54;20922;31
2023/01/12 09:25:55;;;;;;;8.73;2.33;;;12.90;99.90;;;;;;2603674;54;20812;31
2023/01/12 09:28:31;;;;;;;6.23;1.67;;;12.90;99.90;;;;;;2603825;54;20034;31
2023/01/12 09:31:07;;;;;;;7.07;1.88;;;13.10;99.90;;;;;;2603210;54;20094;31
2023/01/12 09:33:41;;;;;;;6.97;2.00;;;13.10;99.90;;;;;;2702331;39;20540;31
2023/01/12 09:36:17;;;;;;;8.50;2.35;;;13.00;99.90;;;;;;2604019;54;20878;31
2023/01/12 09:38:49;;;;;;;;;;;12.90;99.90;;;;;;2610405;39;22367;31
2023/01/12 09:47:12;;;;;;;10.98;1.60;;;13.00;99.90;;;;;;2603937;54;21359;31
2023/01/12 09:49:47;;;;;;;6.20;1.70;;;13.10;99.90;;;;;;2603768;54;20810;31
2023/01/12 09:52:28;;;;;;;6.20;1.73;;;13.20;99.90;;;;;;2603934;54;20053;31
2023/01/12 09:55:02;;;;;;;6.35;1.50;;;13.10;99.90;;;;;;2602936;54;20154;31
2023/01/12 09:58:04;;;;;;;8.77;1.90;;;13.10;99.90;;;;;;2603752;54;20021;31
2023/01/12 10:00:39;;;;;;;5.47;1.90;;;13.10;99.90;;;;;;2603733;54;19942;31
2023/01/12 10:03:17;;;;;;;5.90;1.80;;;13.00;99.90;;;;;;2603773;54;20852;31
2023/01/12 10:05:53;;;;;;;5.18;1.60;;;12.80;99.90;;;;;;2622459;46;20997;31
2023/01/12 10:08:32;;;;;;;8.27;1.92;;;12.60;99.90;;;;;;2603888;54;20056;31
2023/01/12 10:11:15;;;;;;;4.93;1.60;;;12.40;99.90;;;;;;2603984;54;20027;31
2023/01/12 10:14:20;;;;;;;5.95;1.88;;;12.30;99.90;;;;;;2603782;54;20194;31
2023/01/12 10:17:16;;;;;;;4.28;1.48;;;12.20;99.90;;;;;;2603604;54;20056;31
2023/01/12 10:19:53;;;;;;;7.10;1.80;;;12.00;99.90;;;;;;2603345;54;20037;31
2023/01/12 10:22:39;;;;;;;7.70;2.03;;;11.80;99.90;;;;;;2603977;54;20098;31
2023/01/12 10:25:24;;;;;;;5.35;1.60;;;11.50;99.90;;;;;;2603676;54;20057;31
2023/01/12 10:28:00;;;;;;;6.47;2.10;;;11.40;99.90;;;;;;2603846;54;20030;31
2023/01/12 10:30:38;;;;;;;5.00;1.60;;;11.30;99.90;;;;;;2622187;46;19934;31
2023/01/12 10:33:15;;;;;;;6.00;1.80;;;11.20;99.90;;;;;;2603610;54;20046;31
2023/01/12 10:35:53;;;;;;;7.30;2.33;;;11.10;99.90;;;;;;2602813;54;20057;31
2023/01/12 10:38:31;;;;;;;7.78;1.70;;;11.00;99.90;;;;;;2603626;54;20955;31
2023/01/12 10:41:18;;;;;;;9.60;2.17;;;11.00;99.90;;;;;;2603630;54;20034;31
2023/01/12 10:44:09;;;;;;;6.55;1.73;;;10.90;99.90;;;;;;2603696;54;19934;31
2023/01/12 10:46:47;;;;;;;8.50;2.25;;;10.80;99.90;;;;;;2603816;54;20958;31
2023/01/12 10:49:23;;;;;;;4.93;1.55;;;10.80;99.90;;;;;;2603577;54;20042;31
2023/01/12 10:51:59;;;;;;;5.80;2.17;;;10.80;99.90;;;;;;2603714;54;20096;31
2023/01/12 10:54:35;;;;;;;6.70;1.75;;;10.90;99.90;;;;;;2603383;54;20053;31
2023/01/12 10:57:15;;;;;;;;;;;10.90;99.90;;;;;;2602921;54;20093;31
2023/01/12 10:59:52;;;;;;;5.50;1.45;;;11.10;99.90;;;;;;2603361;54;20005;31
2023/01/12 11:02:30;;;;;;;5.70;2.03;;;11.20;99.90;;;;;;2603602;54;20027;31
2023/01/12 11:05:28;;;;;;;6.85;2.08;;;11.20;99.90;;;;;;2603654;54;21028;31
2023/01/12 11:08:03;;;;;;;6.78;1.50;;;11.30;99.90;;;;;;2603699;54;20077;31
2023/01/12 11:10:41;;;;;;;5.20;1.60;;;11.30;99.90;;;;;;2622262;46;20050;31
2023/01/12 11:13:26;;;;;;;8.77;1.83;;;11.30;99.90;;;;;;2603401;54;20034;31
2023/01/12 11:16:05;;;;;;;7.75;1.73;;;11.30;99.90;;;;;;2603417;54;20026;31
2023/01/12 11:18:46;;;;;;;9.55;1.77;;;11.40;99.90;;;;;;2603263;54;20865;31
2023/01/12 11:21:21;;;;;;;8.90;2.10;;;11.40;99.90;;;;;;2602668;54;20030;31
2023/01/12 11:24:00;;;;;;;5.00;1.63;;;11.20;99.90;;;;;;2603591;54;20026;31
2023/01/12 11:26:39;;;;;;;5.50;1.98;;;11.20;99.90;;;;;;2603421;54;20933;31
2023/01/12 11:29:27;;;;;;;6.63;1.38;;;11.10;99.90;;;;;;2603569;54;20027;31
2023/01/12 11:32:04;;;;;;;4.95;1.50;;;11.00;99.90;;;;;;2603628;54;20897;31
2023/01/12 11:34:43;;;;;;;8.30;1.67;;;11.00;99.90;;;;;;2702037;39;21344;31
2023/01/12 11:37:18;;;;;;;7.85;1.90;;;10.90;99.90;;;;;;2603392;54;20820;31
2023/01/12 11:39:55;;;;;;;6.23;1.60;;;10.90;99.90;;;;;;2603335;54;20034;31
2023/01/12 11:45:19;;;;;;;7.05;1.90;;;10.70;99.90;;;;;;2622020;46;20054;31
2023/01/12 11:47:57;;;;;;;6.15;1.80;;;10.60;99.90;;;;;;2603205;54;20061;31
2023/01/12 11:50:34;;;;;;;7.18;2.90;;;10.60;99.90;;;;;;2603428;54;20918;31
2023/01/12 11:53:11;;;;;;;6.97;1.30;;;10.60;99.90;;;;;;2720358;39;20485;31
2023/01/12 11:55:55;;;;;;;7.82;1.70;;;10.50;99.90;;;;;;2603455;54;20153;31
2023/01/12 11:58:33;;;;;;;5.25;1.77;;;10.50;99.90;;;;;;2603606;54;20031;31
2023/01/12 12:01:11;;;;;;;4.63;1.30;;;10.40;99.90;;;;;;2603265;54;21010;31
2023/01/12 12:03:58;;;;;;;5.07;1.30;;;10.40;99.90;;;;;;2603389;54;20804;31
2023/01/12 12:06:41;;;;;;;5.47;1.30;;;10.30;99.90;;;;;;2603251;54;20133;31
2023/01/12 12:09:35;;;;;;;4.10;1.48;;;10.30;99.90;;;;;;2603263;54;20955;31
2023/01/12 12:12:13;;;;;;;6.40;1.60;;;10.30;99.90;;;;;;2603268;54;20038;31
2023/01/12 12:14:55;;;;;;;6.97;2.00;;;10.20;99.90;;;;;;2603256;54;20598;31
2023/01/12 12:17:35;;;;;;;5.20;1.27;;;10.20;99.90;;;;;;2603108;54;20046;31
2023/01/12 12:20:10;;;;;;;10.02;1.70;;;10.20;99.90;;;;;;2603377;54;19942;31
2023/01/12 12:23:08;;;;;;;4.82;1.02;;;10.10;99.90;;;;;;2603478;54;20820;31
2023/01/12 12:25:48;;;;;;;4.18;1.23;;;10.00;99.90;;;;;;2701801;39;20549;31
2023/01/12 12:28:35;;;;;;;5.18;1.75;;;10.00;99.90;;;;;;2603223;54;20052;31
2023/01/12 12:31:15;;;;;;;5.82;2.20;;;10.00;99.90;;;;;;2603171;54;21025;31
2023/01/12 12:34:04;;;;;;;4.70;1.60;;;10.00;99.90;;;;;;2701603;39;20427;31
2023/01/12 12:39:35;;;;;;;6.23;1.90;;;9.90;99.90;;;;;;2603066;54;20782;31
2023/01/12 12:45:20;;;;;;;6.78;1.45;;;9.90;99.90;;;;;;2603144;54;20112;31
2023/01/12 12:48:20;;;;;;;7.82;1.55;;;9.90;99.90;;;;;;2603162;54;20023;31
2023/01/12 12:51:01;;;;;;;6.47;1.20;;;9.80;99.90;;;;;;2606197;46;20835;31
2023/01/12 12:53:36;;;;;;;8.17;1.33;;;9.80;99.90;;;;;;2603122;54;20898;31
2023/01/12 12:56:14;;;;;;;5.43;1.40;;;9.70;99.90;;;;;;2603246;54;20859;31
2023/01/12 12:58:49;;;;;;;4.20;1.60;;;9.70;99.90;;;;;;2602953;54;20949;31
2023/01/12 13:01:58;;;;;;;8.95;2.10;;;9.70;99.90;;;;;;2602900;54;20046;31
2023/01/12 13:05:01;;;;;;;5.47;1.42;;;9.70;99.90;;;;;;2603192;54;20890;31
2023/01/12 13:07:44;;;;;;;5.65;1.50;;;9.70;99.90;;;;;;2621208;46;20894;31
2023/01/12 13:10:31;;;;;;;5.70;1.70;;;9.70;99.90;;;;;;2603276;54;20049;31
2023/01/12 13:13:26;;;;;;;8.55;1.60;;;9.70;99.90;;;;;;2701464;39;20471;31
2023/01/12 13:16:31;;;;;;;5.95;1.73;;;9.70;99.90;;;;;;2603224;54;20049;31
2023/01/12 13:19:09;;;;;;;5.55;1.65;;;9.60;99.90;;;;;;2602788;54;20830;31
2023/01/12 13:21:59;;;;;;;6.87;1.60;;;9.60;99.90;;;;;;2603037;54;20087;31
2023/01/12 13:24:52;;;;;;;6.47;1.30;;;9.60;99.90;;;;;;2603077;54;21296;31
2023/01/12 13:27:49;;;;;;;6.25;1.40;;;9.60;99.90;;;;;;2603166;54;20793;31
2023/01/12 13:30:39;;;;;;;10.95;2.03;;;9.50;99.90;;;;;;2603086;54;20033;31
2023/01/12 13:33:19;;;;;;;6.47;1.97;;;9.50;99.90;;;;;;2602885;54;20117;31
2023/01/12 13:36:10;;;;;;;8.10;1.48;;;9.40;99.90;;;;;;2602040;54;20924;31
2023/01/12 13:39:01;;;;;;;7.95;2.28;;;9.40;99.90;;;;;;2603006;54;20022;31
2023/01/12 13:44:26;;;;;;;6.45;1.77;;;9.40;99.90;;;;;;2602645;54;20023;31
2023/01/12 13:47:10;;;;;;;4.72;1.80;;;9.40;99.90;;;;;;2602891;54;20063;31
2023/01/12 13:49:47;;;;;;;10.05;1.92;;;9.40;99.90;;;;;;2603019;54;20023;31
2023/01/12 13:52:25;;;;;;;8.52;2.00;;;9.40;99.90;;;;;;2602916;54;20885;31
2023/01/12 13:54:57;;;;;;;4.90;1.50;;;9.40;99.90;;;;;;2603236;54;20050;31
2023/01/12 13:57:33;;;;;;;9.10;2.28;;;9.40;99.90;;;;;;2602813;54;20577;31
2023/01/12 14:00:13;;;;;;;4.60;1.40;;;9.30;99.90;;;;;;2603040;54;20956;31
2023/01/12 14:02:47;;;;;;;3.63;1.58;;;9.30;99.90;;;;;;2791303;31;20623;31
2023/01/12 14:05:34;;;;;;;7.87;2.00;;;9.30;99.90;;;;;;2602888;54;20046;31
2023/01/12 14:08:27;;;;;;;9.67;2.37;;;9.30;99.90;;;;;;2621415;47;20026;31
2023/01/12 14:11:10;;;;;;;5.07;1.60;;;9.30;99.90;;;;;;2603022;54;20023;31
2023/01/12 14:13:55;;;;;;;6.30;1.90;;;9.20;99.90;;;;;;2603483;54;21365;31
2023/01/12 14:19:37;;;;;;;8.35;1.90;;;9.20;99.90;;;;;;2603675;54;20890;31
2023/01/12 14:22:20;;;;;;;12.80;2.00;;;9.10;99.90;;;;;;2603642;54;20824;31
2023/01/12 14:24:55;;;;;;;10.00;1.73;;;9.10;99.90;;;;;;2603720;54;20916;31
2023/01/12 14:27:31;;;;;;;9.45;1.70;;;9.20;99.90;;;;;;2603769;54;21383;31
2023/01/12 14:30:14;;;;;;;4.55;2.00;;;9.20;99.90;;;;;;2603626;54;20030;31
2023/01/12 14:32:49;;;;;;;6.80;2.00;;;9.20;99.90;;;;;;2603487;54;20029;31
2023/01/12 14:35:26;;;;;;;8.13;2.45;;;9.10;99.90;;;;;;2603782;54;20845;31
2023/01/12 14:38:05;;;;;;;4.07;1.67;;;9.10;99.90;;;;;;2603783;54;20026;31
2023/01/12 14:40:39;;;;;;;5.00;2.28;;;9.10;99.90;;;;;;2701801;39;21757;31
2023/01/12 14:49:11;;;;;;;;;;;9.10;99.90;;;;;;2603667;54;20041;31
2023/01/12 14:51:55;;;;;;;6.55;2.03;;;9.10;99.90;;;;;;2603239;54;20775;31
2023/01/12 14:54:35;;;;;;;7.38;1.90;;;9.10;99.90;;;;;;2603686;54;20075;31
2023/01/12 14:57:20;;;;;;;9.63;3.28;;;9.10;99.90;;;;;;2602958;54;20925;31
2023/01/12 14:59:54;;;;;;;9.00;1.98;;;9.10;99.90;;;;;;2603318;54;20061;31
2023/01/12 15:02:33;;;;;;;8.33;2.10;;;9.10;99.90;;;;;;2603300;54;20053;31